createdAt,value
2023-05-17T00:00:37.244Z,6.90
2023-05-17T00:03:04.452Z,6.90
2023-05-17T00:05:31.607Z,6.90
2023-05-17T00:07:58.626Z,6.90
2023-05-17T00:10:25.697Z,6.90
2023-05-17T00:12:52.807Z,6.80
2023-05-17T00:15:19.884Z,6.70
2023-05-17T00:17:46.985Z,6.80
2023-05-17T00:20:14.148Z,6.70
2023-05-17T00:22:41.217Z,6.60
2023-05-17T00:25:08.523Z,6.60
2023-05-17T00:27:35.671Z,6.60
2023-05-17T00:30:02.901Z,6.60
2023-05-17T00:32:30.093Z,6.60
2023-05-17T00:34:57.250Z,6.60
2023-05-17T00:37:24.426Z,6.60
2023-05-17T00:39:53.153Z,6.50
2023-05-17T00:42:20.318Z,6.50
2023-05-17T00:44:47.381Z,6.50
2023-05-17T00:47:14.574Z,6.50
2023-05-17T00:49:41.740Z,6.50
2023-05-17T00:52:09.157Z,6.50
2023-05-17T00:54:36.402Z,6.50
2023-05-17T00:57:04.722Z,6.40
2023-05-17T00:59:32.328Z,6.50
2023-05-17T01:02:00.719Z,6.40
2023-05-17T01:04:28.412Z,6.40
2023-05-17T01:06:56.235Z,6.40
2023-05-17T01:09:23.416Z,6.30
2023-05-17T01:11:56.589Z,6.30
2023-05-17T01:14:45.213Z,6.40
2023-05-17T01:17:29.514Z,6.30
2023-05-17T01:20:19.293Z,6.30
2023-05-17T01:22:49.413Z,6.30
2023-05-17T01:25:31.613Z,6.20
2023-05-17T01:28:01.298Z,6.20
2023-05-17T01:30:29.944Z,6.20
2023-05-17T01:33:01.623Z,6.10
2023-05-17T01:35:29.133Z,6.10
2023-05-17T01:37:56.512Z,6.10
2023-05-17T01:40:24.436Z,6.10
2023-05-17T01:43:25.182Z,6.10
2023-05-17T01:46:03.821Z,6.20
2023-05-17T01:48:41.361Z,6.10
2023-05-17T01:51:12.132Z,6.20
2023-05-17T01:53:43.043Z,6.30
2023-05-17T01:56:20.759Z,6.30
2023-05-17T01:58:48.994Z,6.30
2023-05-17T02:01:18.165Z,6.30
2023-05-17T02:03:49.639Z,6.40
2023-05-17T02:06:17.580Z,6.40
2023-05-17T02:08:44.699Z,6.40
2023-05-17T02:11:11.816Z,6.30
2023-05-17T02:13:38.972Z,6.30
2023-05-17T02:16:06.693Z,6.30
2023-05-17T02:18:35.946Z,6.30
2023-05-17T02:21:04.053Z,6.30
2023-05-17T02:23:31.170Z,6.30
2023-05-17T02:25:58.278Z,6.30
2023-05-17T02:28:25.398Z,6.30
2023-05-17T02:30:53.268Z,6.30
2023-05-17T02:33:20.502Z,6.30
2023-05-17T02:35:49.905Z,6.30
2023-05-17T02:38:17.034Z,6.30
2023-05-17T02:40:44.208Z,6.20
2023-05-17T02:43:11.237Z,6.20
2023-05-17T02:45:38.398Z,6.20
2023-05-17T02:48:06.054Z,6.20
2023-05-17T02:50:33.212Z,6.20
2023-05-17T02:53:00.248Z,6.20
2023-05-17T02:55:27.542Z,6.20
2023-05-17T02:57:54.974Z,6.00
2023-05-17T03:00:22.189Z,6.10
2023-05-17T03:02:49.360Z,6.00
2023-05-17T03:05:16.517Z,6.00
2023-05-17T03:07:43.633Z,5.90
2023-05-17T03:10:11.150Z,5.90
2023-05-17T03:12:38.239Z,5.90
2023-05-17T03:15:05.847Z,5.90
2023-05-17T03:17:32.983Z,5.90
2023-05-17T03:20:00.243Z,5.80
2023-05-17T03:22:27.300Z,5.90
2023-05-17T03:24:54.491Z,5.80
2023-05-17T03:27:21.632Z,5.90
2023-05-17T03:29:48.728Z,5.90
2023-05-17T03:32:15.876Z,5.80
2023-05-17T03:34:42.960Z,5.90
2023-05-17T03:37:10.097Z,5.80
2023-05-17T03:39:37.207Z,5.80
2023-05-17T03:42:04.425Z,5.80
2023-05-17T03:44:31.534Z,5.80
2023-05-17T03:46:58.596Z,5.80
2023-05-17T03:49:25.759Z,5.80
2023-05-17T03:51:52.848Z,5.80
2023-05-17T03:54:20.189Z,5.80
2023-05-17T03:56:49.236Z,5.90
2023-05-17T03:59:17.207Z,5.90
2023-05-17T04:01:45.652Z,5.90
2023-05-17T04:04:12.838Z,5.90
2023-05-17T04:06:41.350Z,5.90
2023-05-17T04:09:11.213Z,6.00
2023-05-17T04:11:38.513Z,6.00
2023-05-17T04:14:05.702Z,6.10
2023-05-17T04:16:32.927Z,6.10
2023-05-17T04:19:06.333Z,6.20
2023-05-17T04:21:33.556Z,6.20
2023-05-17T04:24:00.971Z,6.30
2023-05-17T04:26:29.377Z,6.40
2023-05-17T04:28:56.453Z,6.40
2023-05-17T04:31:23.903Z,6.40
2023-05-17T04:33:51.168Z,6.40
2023-05-17T04:36:18.772Z,6.40
2023-05-17T04:38:46.618Z,6.50
2023-05-17T04:41:13.845Z,6.50
2023-05-17T04:43:42.245Z,6.50
2023-05-17T04:46:09.390Z,6.50
2023-05-17T04:48:36.685Z,6.60
2023-05-17T04:51:04.921Z,6.60
2023-05-17T04:53:32.405Z,6.70
2023-05-17T04:55:59.885Z,6.70
2023-05-17T04:58:27.034Z,6.80
2023-05-17T05:00:54.161Z,6.70
2023-05-17T05:03:23.163Z,6.80
2023-05-17T05:05:51.060Z,6.80
2023-05-17T05:08:18.336Z,6.80
2023-05-17T05:10:46.393Z,6.90
2023-05-17T05:13:13.516Z,6.90
2023-05-17T05:15:40.624Z,7.00
2023-05-17T05:18:07.919Z,7.00
2023-05-17T05:20:35.132Z,7.10
2023-05-17T05:23:03.982Z,7.10
2023-05-17T05:25:31.308Z,7.10
2023-05-17T05:27:58.619Z,7.10
2023-05-17T05:30:25.776Z,7.10
2023-05-17T05:32:53.488Z,7.10
2023-05-17T05:35:21.035Z,7.10
2023-05-17T05:37:48.086Z,7.00
2023-05-17T05:40:15.284Z,7.00
2023-05-17T05:42:42.421Z,6.90
2023-05-17T05:45:11.441Z,6.90
2023-05-17T05:47:38.681Z,7.00
2023-05-17T05:50:07.181Z,7.00
2023-05-17T05:52:34.283Z,7.00
2023-05-17T05:55:01.411Z,7.00
2023-05-17T05:57:28.551Z,7.10
2023-05-17T05:59:55.642Z,7.10
2023-05-17T06:02:22.890Z,7.20
2023-05-17T06:04:50.134Z,7.20
2023-05-17T06:07:17.320Z,7.20
2023-05-17T06:09:44.473Z,7.40
2023-05-17T06:12:11.603Z,7.70
2023-05-17T06:14:38.880Z,7.90
2023-05-17T06:17:06.022Z,7.90
2023-05-17T06:19:33.262Z,8.00
2023-05-17T06:22:00.573Z,8.00
2023-05-17T06:24:27.656Z,8.10
2023-05-17T06:26:54.778Z,8.10
2023-05-17T06:29:22.293Z,8.40
2023-05-17T06:31:49.492Z,8.80
2023-05-17T06:34:16.615Z,9.30
2023-05-17T06:36:43.723Z,9.40
2023-05-17T06:39:11.261Z,9.70
2023-05-17T06:41:38.516Z,10.10
2023-05-17T06:44:05.973Z,10.90
2023-05-17T06:46:33.063Z,11.30
2023-05-17T06:49:00.333Z,11.60
2023-05-17T06:51:27.609Z,11.90
2023-05-17T06:53:54.758Z,12.60
2023-05-17T06:56:22.378Z,13.00
2023-05-17T06:58:49.460Z,12.70
2023-05-17T07:01:17.193Z,12.50
2023-05-17T07:03:44.641Z,12.30
2023-05-17T07:06:11.913Z,11.80
2023-05-17T07:08:40.579Z,11.90
2023-05-17T07:11:07.706Z,12.20
2023-05-17T07:13:34.798Z,12.60
2023-05-17T07:16:01.894Z,13.00
2023-05-17T07:18:29.150Z,13.50
2023-05-17T07:20:56.398Z,13.90
2023-05-17T07:23:23.486Z,13.70
2023-05-17T07:25:51.122Z,13.40
2023-05-17T07:28:18.218Z,12.50
2023-05-17T07:30:45.561Z,12.20
2023-05-17T07:33:12.726Z,11.80
2023-05-17T07:35:39.865Z,11.70
2023-05-17T07:38:07.094Z,11.60
2023-05-17T07:40:34.209Z,11.70
2023-05-17T07:43:01.515Z,11.90
2023-05-17T07:45:29.279Z,11.90
2023-05-17T07:47:56.754Z,11.50
2023-05-17T07:50:24.236Z,11.60
2023-05-17T07:52:52.035Z,11.40
2023-05-17T07:55:19.996Z,11.40
2023-05-17T07:57:48.331Z,11.70
2023-05-17T08:00:18.840Z,12.00
2023-05-17T08:02:46.918Z,12.40
2023-05-17T08:05:14.014Z,12.00
2023-05-17T08:07:41.159Z,12.10
2023-05-17T08:10:08.660Z,12.30
2023-05-17T08:12:36.101Z,12.40
2023-05-17T08:15:03.524Z,12.40
2023-05-17T08:17:30.789Z,12.00
2023-05-17T08:19:57.975Z,11.80
2023-05-17T08:22:28.236Z,11.60
2023-05-17T08:24:55.311Z,11.40
2023-05-17T08:27:22.389Z,11.20
2023-05-17T08:29:49.545Z,11.20
2023-05-17T08:32:16.649Z,11.40
2023-05-17T08:34:43.742Z,12.20
2023-05-17T08:37:10.795Z,12.50
2023-05-17T08:39:37.963Z,12.70
2023-05-17T08:42:08.600Z,12.90
2023-05-17T08:44:37.257Z,12.70
2023-05-17T08:47:04.922Z,12.60
2023-05-17T08:49:34.391Z,12.60
2023-05-17T08:52:03.580Z,12.60
2023-05-17T08:54:30.720Z,12.70
2023-05-17T08:57:02.243Z,12.70
2023-05-17T08:59:34.044Z,12.80
2023-05-17T09:02:01.994Z,13.00
2023-05-17T09:04:31.221Z,12.90
2023-05-17T09:06:59.243Z,12.50
2023-05-17T09:09:26.892Z,12.20
2023-05-17T09:11:53.996Z,12.10
2023-05-17T09:14:21.253Z,12.30
2023-05-17T09:16:56.019Z,12.60
2023-05-17T09:19:23.325Z,13.00
2023-05-17T09:21:50.907Z,13.30
2023-05-17T09:24:27.133Z,13.30
2023-05-17T09:27:00.891Z,13.40
2023-05-17T09:29:32.645Z,13.50
2023-05-17T09:32:26.466Z,13.50
2023-05-17T09:34:54.052Z,13.30
2023-05-17T09:37:21.381Z,13.30
2023-05-17T09:39:48.821Z,13.30
2023-05-17T09:42:17.121Z,13.40
2023-05-17T09:44:57.836Z,13.20
2023-05-17T09:47:26.119Z,12.60
2023-05-17T09:49:53.520Z,12.30
2023-05-17T09:52:21.631Z,12.40
2023-05-17T09:54:55.877Z,12.70
2023-05-17T09:57:25.363Z,12.90
2023-05-17T09:59:57.653Z,12.90
2023-05-17T10:02:31.324Z,12.90
2023-05-17T10:04:59.725Z,13.30
2023-05-17T10:07:28.280Z,13.40
2023-05-17T10:09:56.338Z,13.40
2023-05-17T10:12:25.762Z,13.60
2023-05-17T10:14:56.135Z,13.90
2023-05-17T10:17:24.584Z,13.90
2023-05-17T10:19:52.749Z,13.60
2023-05-17T10:22:23.660Z,13.30
2023-05-17T10:24:51.969Z,13.40
2023-05-17T10:27:19.210Z,13.60
2023-05-17T10:29:49.881Z,13.60
2023-05-17T10:32:19.808Z,13.90
2023-05-17T10:34:57.996Z,14.10
2023-05-17T10:37:34.878Z,14.00
2023-05-17T10:40:03.760Z,14.20
2023-05-17T10:42:32.270Z,14.30
2023-05-17T10:45:01.775Z,14.70
2023-05-17T10:47:35.860Z,15.10
2023-05-17T10:50:08.882Z,15.10
2023-05-17T10:52:39.451Z,14.50
2023-05-17T10:55:08.769Z,14.60
2023-05-17T10:57:50.799Z,14.70
2023-05-17T11:00:22.107Z,14.90
2023-05-17T11:02:51.005Z,15.00
2023-05-17T11:05:25.990Z,15.30
2023-05-17T11:08:12.008Z,14.70
2023-05-17T11:10:39.259Z,14.40
2023-05-17T11:13:23.018Z,14.50
2023-05-17T11:16:10.437Z,14.30
2023-05-17T11:18:54.619Z,14.90
2023-05-17T11:21:30.429Z,15.10
2023-05-17T11:24:03.967Z,15.20
2023-05-17T11:26:38.293Z,15.50
2023-05-17T11:29:10.720Z,15.50
2023-05-17T11:31:46.307Z,16.10
2023-05-17T11:34:13.522Z,16.10
2023-05-17T11:36:51.408Z,16.40
2023-05-17T11:39:21.690Z,16.80
2023-05-17T11:41:54.062Z,16.30
2023-05-17T11:44:29.083Z,15.90
2023-05-17T11:47:07.260Z,16.20
2023-05-17T11:49:38.602Z,16.70
2023-05-17T11:52:06.613Z,16.90
2023-05-17T11:54:35.021Z,17.30
2023-05-17T11:57:04.098Z,17.20
2023-05-17T11:59:40.375Z,17.10
2023-05-17T12:02:08.022Z,17.50
2023-05-17T12:04:39.487Z,17.50
2023-05-17T12:07:10.885Z,16.80
2023-05-17T12:09:39.403Z,16.00
2023-05-17T12:12:06.765Z,16.60
2023-05-17T12:14:34.084Z,17.20
2023-05-17T12:17:04.133Z,17.20
2023-05-17T12:19:32.927Z,17.20
2023-05-17T12:22:08.536Z,17.00
2023-05-17T12:24:43.377Z,17.00
2023-05-17T12:27:11.088Z,17.70
2023-05-17T12:29:39.415Z,17.40
2023-05-17T12:32:08.879Z,17.50
2023-05-17T12:34:37.822Z,17.80
2023-05-17T12:37:10.647Z,17.60
2023-05-17T12:39:38.422Z,18.50
2023-05-17T12:42:05.982Z,18.50
2023-05-17T12:44:33.566Z,18.50
2023-05-17T12:47:03.058Z,17.60
2023-05-17T12:49:30.257Z,16.90
2023-05-17T12:52:03.448Z,17.30
2023-05-17T12:54:30.832Z,17.50
2023-05-17T12:56:58.087Z,18.20
2023-05-17T12:59:26.050Z,19.20
2023-05-17T13:01:57.906Z,18.70
2023-05-17T13:04:33.519Z,18.00
2023-05-17T13:07:03.542Z,18.50
2023-05-17T13:09:32.663Z,18.60
2023-05-17T13:12:08.553Z,18.30
2023-05-17T13:14:45.639Z,18.40
2023-05-17T13:17:22.529Z,18.40
2023-05-17T13:19:50.166Z,18.80
2023-05-17T13:22:17.454Z,19.00
2023-05-17T13:24:45.422Z,18.70
2023-05-17T13:27:13.076Z,18.90
2023-05-17T13:29:42.084Z,18.00
2023-05-17T13:32:11.891Z,17.70
2023-05-17T13:34:39.892Z,18.30
2023-05-17T13:37:10.553Z,18.30
2023-05-17T13:39:39.500Z,17.10
2023-05-17T13:42:06.928Z,17.10
2023-05-17T13:44:34.174Z,17.60
2023-05-17T13:47:01.308Z,18.10
2023-05-17T13:49:28.831Z,18.70
2023-05-17T13:51:56.949Z,18.80
2023-05-17T13:54:24.258Z,19.20
2023-05-17T13:56:51.343Z,19.30
2023-05-17T13:59:18.709Z,19.40
2023-05-17T14:01:46.357Z,18.60
2023-05-17T14:04:13.570Z,18.20
2023-05-17T14:06:41.968Z,17.70
2023-05-17T14:09:09.084Z,17.20
2023-05-17T14:11:36.370Z,17.20
2023-05-17T14:14:04.723Z,17.10
2023-05-17T14:16:32.044Z,18.20
2023-05-17T14:19:01.926Z,18.40
2023-05-17T14:21:31.606Z,19.00
2023-05-17T14:23:58.768Z,19.00
2023-05-17T14:26:26.405Z,18.50
2023-05-17T14:28:53.806Z,18.00
2023-05-17T14:31:21.280Z,18.30
2023-05-17T14:33:48.540Z,19.40
2023-05-17T14:36:15.997Z,19.60
2023-05-17T14:38:43.072Z,19.80
2023-05-17T14:41:10.206Z,19.50
2023-05-17T14:43:37.302Z,19.70
2023-05-17T14:46:04.800Z,19.70
2023-05-17T14:48:31.978Z,19.20
2023-05-17T14:50:59.095Z,18.60
2023-05-17T14:53:29.579Z,18.30
2023-05-17T14:55:59.802Z,19.00
2023-05-17T14:58:26.945Z,18.70
2023-05-17T15:01:05.471Z,18.20
2023-05-17T15:03:35.318Z,17.40
2023-05-17T15:06:07.088Z,16.60
2023-05-17T15:08:36.082Z,16.30
2023-05-17T15:11:03.256Z,16.60
2023-05-17T15:13:30.582Z,17.20
2023-05-17T15:15:57.647Z,17.50
2023-05-17T15:18:24.836Z,18.10
2023-05-17T15:20:51.962Z,18.90
2023-05-17T15:23:19.006Z,19.10
2023-05-17T15:25:46.670Z,18.90
2023-05-17T15:28:14.247Z,18.10
2023-05-17T15:30:42.264Z,18.00
2023-05-17T15:33:09.698Z,18.10
2023-05-17T15:35:40.358Z,18.30
2023-05-17T15:38:07.505Z,18.40
2023-05-17T15:40:34.722Z,18.40
2023-05-17T15:43:01.844Z,17.70
2023-05-17T15:45:29.434Z,17.80
2023-05-17T15:47:57.372Z,17.80
2023-05-17T15:50:24.804Z,17.60
2023-05-17T15:52:51.984Z,17.60
2023-05-17T15:55:19.260Z,17.60
2023-05-17T15:57:46.870Z,17.30
2023-05-17T16:00:14.339Z,17.20
2023-05-17T16:02:41.875Z,17.60
2023-05-17T16:05:09.373Z,17.90
2023-05-17T16:07:36.641Z,17.60
2023-05-17T16:10:03.980Z,17.20
2023-05-17T16:12:31.216Z,17.00
2023-05-17T16:14:58.339Z,16.80
2023-05-17T16:17:25.426Z,16.80
2023-05-17T16:19:53.407Z,16.90
2023-05-17T16:22:20.700Z,16.80
2023-05-17T16:24:47.814Z,16.70
2023-05-17T16:27:15.031Z,16.60
2023-05-17T16:29:42.077Z,16.50
2023-05-17T16:32:09.281Z,16.70
2023-05-17T16:34:36.804Z,16.70
2023-05-17T16:37:07.373Z,16.60
2023-05-17T16:39:34.769Z,16.40
2023-05-17T16:42:02.108Z,16.40
2023-05-17T16:44:29.214Z,16.10
2023-05-17T16:46:56.352Z,15.80
2023-05-17T16:49:23.414Z,15.70
2023-05-17T16:51:52.404Z,15.50
2023-05-17T16:54:19.474Z,15.30
2023-05-17T16:56:46.663Z,15.20
2023-05-17T16:59:13.867Z,15.20
2023-05-17T17:01:41.055Z,14.90
2023-05-17T17:04:08.257Z,14.90
2023-05-17T17:06:35.692Z,14.70
2023-05-17T17:09:08.180Z,14.80
2023-05-17T17:11:35.543Z,14.80
2023-05-17T17:14:02.961Z,14.90
2023-05-17T17:16:31.427Z,14.90
2023-05-17T17:18:59.054Z,14.70
2023-05-17T17:21:26.631Z,14.80
2023-05-17T17:23:53.810Z,14.70
2023-05-17T17:26:21.189Z,14.50
2023-05-17T17:28:48.317Z,14.30
2023-05-17T17:31:16.562Z,14.20
2023-05-17T17:33:43.769Z,14.20
2023-05-17T17:36:11.511Z,14.20
2023-05-17T17:38:38.952Z,13.90
2023-05-17T17:41:06.512Z,13.70
2023-05-17T17:43:33.665Z,13.70
2023-05-17T17:46:01.097Z,13.50
2023-05-17T17:48:28.299Z,13.50
2023-05-17T17:50:55.948Z,13.40
2023-05-17T17:53:23.412Z,13.30
2023-05-17T17:55:50.820Z,13.30
2023-05-17T17:58:18.251Z,13.20
2023-05-17T18:00:45.273Z,13.10
2023-05-17T18:03:13.145Z,13.00
2023-05-17T18:05:41.767Z,12.90
2023-05-17T18:08:08.947Z,12.70
2023-05-17T18:10:36.142Z,12.50
2023-05-17T18:13:03.263Z,12.50
2023-05-17T18:15:30.367Z,12.40
2023-05-17T18:17:57.621Z,12.30
2023-05-17T18:20:26.580Z,12.30
2023-05-17T18:22:53.807Z,12.20
2023-05-17T18:25:21.802Z,12.10
2023-05-17T18:27:48.914Z,12.00
2023-05-17T18:30:17.159Z,11.90
2023-05-17T18:32:44.936Z,11.80
2023-05-17T18:35:12.265Z,11.80
2023-05-17T18:37:39.398Z,11.70
2023-05-17T18:40:07.447Z,11.60
2023-05-17T18:42:34.691Z,11.50
2023-05-17T18:45:01.891Z,11.40
2023-05-17T18:47:29.182Z,11.30
2023-05-17T18:49:56.429Z,11.30
2023-05-17T18:52:23.551Z,11.20
2023-05-17T18:54:50.906Z,11.10
2023-05-17T18:57:17.961Z,11.00
2023-05-17T18:59:45.145Z,10.90
2023-05-17T19:02:12.402Z,10.80
2023-05-17T19:04:39.817Z,10.70
2023-05-17T19:07:07.332Z,10.60
2023-05-17T19:09:34.685Z,10.60
2023-05-17T19:12:01.762Z,10.50
2023-05-17T19:14:28.893Z,10.40
2023-05-17T19:16:57.151Z,10.40
2023-05-17T19:19:25.462Z,10.30
2023-05-17T19:21:52.850Z,10.30
2023-05-17T19:24:19.999Z,10.20
2023-05-17T19:26:47.104Z,10.10
2023-05-17T19:29:15.613Z,10.00
2023-05-17T19:31:42.778Z,9.90
2023-05-17T19:34:09.932Z,9.90
2023-05-17T19:36:37.636Z,9.80
2023-05-17T19:39:04.831Z,9.80
2023-05-17T19:41:32.960Z,9.70
2023-05-17T19:44:00.093Z,9.70
2023-05-17T19:46:27.320Z,9.60
2023-05-17T19:48:55.748Z,9.60
2023-05-17T19:51:23.430Z,9.50
2023-05-17T19:53:53.364Z,9.50
2023-05-17T19:56:23.061Z,9.40
2023-05-17T19:58:51.248Z,9.40
2023-05-17T20:01:18.713Z,9.30
2023-05-17T20:03:46.186Z,9.20
2023-05-17T20:06:15.199Z,9.20
2023-05-17T20:08:43.745Z,9.10
2023-05-17T20:11:11.265Z,9.10
2023-05-17T20:13:41.347Z,9.00
2023-05-17T20:16:13.324Z,9.00
2023-05-17T20:18:43.973Z,8.90
2023-05-17T20:21:15.385Z,8.90
2023-05-17T20:23:42.694Z,8.80
2023-05-17T20:26:17.082Z,8.80
2023-05-17T20:28:44.807Z,8.80
2023-05-17T20:31:12.350Z,8.70
2023-05-17T20:33:39.954Z,8.70
2023-05-17T20:36:07.291Z,8.70
2023-05-17T20:38:34.463Z,8.60
2023-05-17T20:41:01.627Z,8.50
2023-05-17T20:43:29.133Z,8.50
2023-05-17T20:45:56.725Z,8.50
2023-05-17T20:48:23.902Z,8.40
2023-05-17T20:50:51.162Z,8.40
2023-05-17T20:53:18.317Z,8.40
2023-05-17T20:55:45.966Z,8.40
2023-05-17T20:58:12.987Z,8.40
2023-05-17T21:00:40.164Z,8.40
2023-05-17T21:03:09.405Z,8.40
2023-05-17T21:05:38.674Z,8.30
2023-05-17T21:08:07.500Z,8.30
2023-05-17T21:10:36.315Z,8.20
2023-05-17T21:13:03.427Z,8.20
2023-05-17T21:15:30.849Z,8.10
2023-05-17T21:17:58.135Z,8.10
2023-05-17T21:20:25.247Z,8.10
2023-05-17T21:22:52.342Z,8.00
2023-05-17T21:25:19.455Z,7.90
2023-05-17T21:27:47.604Z,7.90
2023-05-17T21:30:14.988Z,7.90
2023-05-17T21:32:42.193Z,7.80
2023-05-17T21:35:09.569Z,7.70
2023-05-17T21:37:40.181Z,7.80
2023-05-17T21:40:08.432Z,7.70
2023-05-17T21:42:35.889Z,7.60
2023-05-17T21:45:03.173Z,7.60
2023-05-17T21:47:30.303Z,7.60
2023-05-17T21:49:59.222Z,7.50
2023-05-17T21:52:26.418Z,7.40
2023-05-17T21:54:53.504Z,7.40
2023-05-17T21:57:22.093Z,7.40
2023-05-17T21:59:50.898Z,7.40
2023-05-17T22:02:18.634Z,7.40
2023-05-17T22:04:45.793Z,7.40
2023-05-17T22:07:14.212Z,7.40
2023-05-17T22:09:41.363Z,7.40
2023-05-17T22:12:08.872Z,7.40
2023-05-17T22:14:36.710Z,7.40
2023-05-17T22:17:08.682Z,7.30
2023-05-17T22:19:40.919Z,7.30
2023-05-17T22:22:08.774Z,7.30
2023-05-17T22:24:35.972Z,7.30
2023-05-17T22:27:03.966Z,7.20
2023-05-17T22:29:31.255Z,7.20
2023-05-17T22:31:58.561Z,7.20
2023-05-17T22:34:25.752Z,7.20
2023-05-17T22:36:52.826Z,7.20
2023-05-17T22:39:20.065Z,7.10
2023-05-17T22:41:47.129Z,7.10
2023-05-17T22:44:14.240Z,7.10
2023-05-17T22:46:42.481Z,7.10
2023-05-17T22:49:09.967Z,7.00
2023-05-17T22:51:37.146Z,7.00
2023-05-17T22:54:04.519Z,6.90
2023-05-17T22:56:31.747Z,6.90
2023-05-17T22:58:59.285Z,6.90
2023-05-17T23:01:26.717Z,7.00
2023-05-17T23:03:53.870Z,6.90
2023-05-17T23:06:22.326Z,6.90
2023-05-17T23:08:53.264Z,6.80
2023-05-17T23:11:20.363Z,6.80
2023-05-17T23:13:47.483Z,6.70
2023-05-17T23:16:14.617Z,6.70
2023-05-17T23:18:41.940Z,6.70
2023-05-17T23:21:09.618Z,6.60
2023-05-17T23:23:38.217Z,6.60
2023-05-17T23:26:06.165Z,6.50
2023-05-17T23:28:33.325Z,6.40
2023-05-17T23:31:01.644Z,6.40
2023-05-17T23:33:31.404Z,6.30
2023-05-17T23:36:01.650Z,6.30
2023-05-17T23:38:28.874Z,6.30
2023-05-17T23:40:56.494Z,6.30
2023-05-17T23:43:23.569Z,6.30
2023-05-17T23:45:51.531Z,6.30
2023-05-17T23:48:20.893Z,6.30
2023-05-17T23:50:48.023Z,6.30
2023-05-17T23:53:15.160Z,6.30
2023-05-17T23:55:42.241Z,6.30
2023-05-17T23:58:09.623Z,6.30
